createdAt,value
2018-06-25T00:00:09.243Z,5.00
2018-06-25T00:02:38.304Z,4.90
2018-06-25T00:05:07.334Z,4.77
2018-06-25T00:07:36.396Z,5.13
2018-06-25T00:10:05.423Z,4.87
2018-06-25T00:12:34.523Z,5.37
2018-06-25T00:15:03.600Z,5.10
2018-06-25T00:17:32.672Z,5.57
2018-06-25T00:20:01.724Z,5.80
2018-06-25T00:22:30.796Z,5.73
2018-06-25T00:24:59.898Z,6.60
2018-06-25T00:27:28.971Z,6.13
2018-06-25T00:29:58.028Z,6.70
2018-06-25T00:32:26.848Z,6.90
2018-06-25T00:34:55.779Z,6.67
2018-06-25T00:37:24.856Z,7.10
2018-06-25T00:39:53.903Z,7.40
2018-06-25T00:42:22.719Z,6.97
2018-06-25T00:44:51.644Z,6.80
2018-06-25T00:47:20.716Z,7.37
2018-06-25T00:49:50.008Z,7.07
2018-06-25T00:52:19.088Z,6.50
2018-06-25T00:54:48.139Z,6.77
2018-06-25T00:57:17.219Z,7.37
2018-06-25T00:59:52.437Z,7.70
2018-06-25T01:02:21.860Z,7.37
2018-06-25T01:04:50.919Z,7.43
2018-06-25T01:07:20.299Z,8.43
2018-06-25T01:09:49.644Z,7.87
2018-06-25T01:12:18.763Z,8.67
2018-06-25T01:14:47.816Z,8.57
2018-06-25T01:17:16.876Z,8.60
2018-06-25T01:19:45.951Z,8.60
2018-06-25T01:22:15.096Z,10.00
2018-06-25T01:24:43.923Z,9.97
2018-06-25T01:27:12.860Z,10.07
2018-06-25T01:29:42.441Z,9.73
2018-06-25T01:32:11.578Z,10.10
2018-06-25T01:34:40.658Z,10.10
2018-06-25T01:37:09.511Z,9.83
2018-06-25T01:39:38.472Z,10.77
2018-06-25T01:42:07.291Z,11.03
2018-06-25T01:44:36.252Z,11.10
2018-06-25T01:47:05.324Z,10.93
2018-06-25T01:49:34.388Z,11.13
2018-06-25T01:52:03.436Z,12.17
2018-06-25T01:54:32.250Z,12.27
2018-06-25T01:57:01.172Z,13.17
2018-06-25T01:59:30.235Z,14.30
2018-06-25T02:01:59.274Z,12.80
2018-06-25T02:04:28.379Z,14.07
2018-06-25T02:06:57.437Z,13.57
2018-06-25T02:09:26.508Z,13.70
2018-06-25T02:11:55.584Z,13.33
2018-06-25T02:14:24.448Z,12.80
2018-06-25T02:16:53.383Z,13.60
2018-06-25T02:19:22.447Z,12.73
2018-06-25T02:21:51.507Z,13.53
2018-06-25T02:24:20.576Z,13.50
2018-06-25T02:26:49.636Z,13.63
2018-06-25T02:29:18.708Z,13.40
2018-06-25T02:31:47.767Z,13.53
2018-06-25T02:34:16.836Z,12.87
2018-06-25T02:36:45.667Z,14.13
2018-06-25T02:39:14.624Z,12.97
2018-06-25T02:41:43.429Z,12.87
2018-06-25T02:44:12.371Z,13.60
2018-06-25T02:46:41.434Z,13.00
2018-06-25T02:49:10.508Z,12.83
2018-06-25T02:51:39.309Z,13.07
2018-06-25T02:54:08.256Z,13.90
2018-06-25T02:56:37.311Z,12.97
2018-06-25T02:59:06.406Z,13.47
2018-06-25T03:01:35.565Z,13.67
2018-06-25T03:04:04.632Z,13.27
2018-06-25T03:06:33.752Z,13.70
2018-06-25T03:09:02.860Z,13.80
2018-06-25T03:11:31.689Z,12.97
2018-06-25T03:14:00.632Z,14.43
2018-06-25T03:16:29.680Z,14.13
2018-06-25T03:18:58.740Z,14.13
2018-06-25T03:21:27.548Z,14.70
2018-06-25T03:23:56.312Z,13.77
2018-06-25T03:26:25.240Z,13.87
2018-06-25T03:28:54.308Z,13.70
2018-06-25T03:31:23.355Z,13.40
2018-06-25T03:33:52.556Z,13.77
2018-06-25T03:36:21.681Z,13.60
2018-06-25T03:38:50.752Z,14.07
2018-06-25T03:41:19.808Z,13.83
2018-06-25T03:43:48.872Z,14.00
2018-06-25T03:46:17.916Z,13.60
2018-06-25T03:48:47.045Z,14.47
2018-06-25T03:51:16.088Z,14.17
2018-06-25T03:53:45.163Z,14.30
2018-06-25T03:56:13.964Z,14.77
2018-06-25T03:58:42.924Z,15.63
2018-06-25T04:01:11.977Z,15.20
2018-06-25T04:03:41.113Z,14.70
2018-06-25T04:06:10.160Z,14.80
2018-06-25T04:08:39.224Z,13.97
2018-06-25T04:11:08.309Z,15.13
2018-06-25T04:13:37.363Z,15.63
2018-06-25T04:16:06.468Z,14.07
2018-06-25T04:18:35.523Z,15.10
2018-06-25T04:21:04.491Z,14.17
2018-06-25T04:23:33.419Z,14.67
2018-06-25T04:26:02.488Z,14.10
2018-06-25T04:28:31.548Z,12.57
2018-06-25T04:31:00.633Z,12.90
2018-06-25T04:33:29.700Z,12.40
2018-06-25T04:35:58.768Z,12.07
2018-06-25T04:38:27.889Z,12.27
2018-06-25T04:40:56.924Z,12.73
2018-06-25T04:43:25.982Z,12.03
2018-06-25T04:45:54.831Z,11.40
2018-06-25T04:48:23.756Z,11.43
2018-06-25T04:50:52.576Z,10.90
2018-06-25T04:53:21.687Z,10.20
2018-06-25T04:55:50.649Z,9.90
2018-06-25T04:58:19.700Z,10.03
2018-06-25T05:00:48.802Z,10.33
2018-06-25T05:03:18.267Z,9.13
2018-06-25T05:05:47.332Z,8.80
2018-06-25T05:08:16.135Z,8.20
2018-06-25T05:10:45.183Z,9.63
2018-06-25T05:13:14.244Z,8.30
2018-06-25T05:15:43.340Z,8.60
2018-06-25T05:18:12.379Z,9.57
2018-06-25T05:20:41.440Z,8.77
2018-06-25T05:23:10.480Z,8.50
2018-06-25T05:25:39.549Z,8.43
2018-06-25T05:28:08.593Z,8.30
2018-06-25T05:30:37.677Z,8.97
2018-06-25T05:33:06.491Z,7.73
2018-06-25T05:35:35.205Z,8.40
2018-06-25T05:38:04.124Z,8.00
2018-06-25T05:40:33.192Z,7.83
2018-06-25T05:43:02.244Z,7.83
2018-06-25T05:45:31.055Z,7.57
2018-06-25T05:48:00.540Z,8.10
2018-06-25T05:50:29.507Z,7.70
2018-06-25T05:52:58.562Z,8.00
2018-06-25T05:55:27.976Z,7.23
2018-06-25T05:57:57.168Z,7.40
2018-06-25T06:00:26.227Z,7.57
2018-06-25T06:02:55.031Z,7.90
2018-06-25T06:05:23.984Z,8.08
2018-06-25T06:07:53.029Z,8.73
2018-06-25T06:10:22.107Z,8.83
2018-06-25T06:12:51.174Z,9.53
2018-06-25T06:15:20.248Z,8.78
2018-06-25T06:17:49.296Z,8.75
2018-06-25T06:20:18.114Z,8.03
2018-06-25T06:22:47.043Z,7.40
2018-06-25T06:25:16.120Z,7.07
2018-06-25T06:27:45.172Z,7.87
2018-06-25T06:30:14.240Z,7.50
2018-06-25T06:32:43.328Z,8.30
2018-06-25T06:35:12.400Z,7.53
2018-06-25T06:37:41.452Z,7.80
2018-06-25T06:40:10.320Z,7.47
2018-06-25T06:42:39.224Z,7.37
2018-06-25T06:45:08.088Z,7.70
2018-06-25T06:47:37.096Z,7.67
2018-06-25T06:50:06.280Z,9.03
2018-06-25T06:52:35.337Z,7.87
2018-06-25T06:55:04.504Z,9.17
2018-06-25T06:57:33.663Z,9.53
2018-06-25T07:00:02.617Z,8.40
2018-06-25T07:02:31.651Z,5.70
2018-06-25T07:05:00.704Z,5.87
2018-06-25T07:07:29.528Z,5.27
2018-06-25T07:09:58.456Z,5.73
2018-06-25T07:12:27.543Z,5.90
2018-06-25T07:14:56.592Z,6.27
2018-06-25T07:17:25.648Z,5.43
2018-06-25T07:19:54.693Z,5.30
2018-06-25T07:22:23.756Z,5.87
2018-06-25T07:24:52.583Z,5.80
2018-06-25T07:27:21.529Z,6.07
2018-06-25T07:29:50.573Z,5.00
2018-06-25T07:32:19.721Z,4.43
2018-06-25T07:34:48.510Z,4.60
2018-06-25T07:37:17.447Z,3.90
2018-06-25T07:39:46.495Z,4.13
2018-06-25T07:42:15.316Z,4.63
2018-06-25T07:44:44.500Z,2.90
2018-06-25T07:47:13.514Z,2.90
2018-06-25T07:49:42.544Z,2.80
2018-06-25T07:52:11.608Z,3.00
2018-06-25T07:54:40.648Z,3.03
2018-06-25T07:57:09.707Z,3.40
2018-06-25T07:59:38.751Z,2.87
2018-06-25T08:02:08.304Z,3.33
2018-06-25T08:04:37.359Z,3.70
2018-06-25T08:07:06.632Z,2.83
2018-06-25T08:09:35.672Z,2.60
2018-06-25T08:12:04.513Z,2.30
2018-06-25T08:14:33.432Z,2.40
2018-06-25T08:17:02.492Z,2.00
2018-06-25T08:19:31.539Z,2.13
2018-06-25T08:22:00.348Z,2.40
2018-06-25T08:24:29.275Z,2.30
2018-06-25T08:26:58.356Z,2.20
2018-06-25T08:29:27.495Z,2.30
2018-06-25T08:31:56.560Z,2.00
2018-06-25T08:34:25.785Z,1.77
2018-06-25T08:36:54.701Z,2.00
2018-06-25T08:39:23.491Z,1.97
2018-06-25T08:41:52.429Z,2.27
2018-06-25T08:44:21.464Z,1.97
2018-06-25T08:46:50.528Z,2.00
2018-06-25T08:49:19.567Z,1.93
2018-06-25T08:51:48.661Z,2.40
2018-06-25T08:54:17.496Z,2.60
2018-06-25T08:56:46.489Z,2.33
2018-06-25T08:59:15.505Z,2.10
2018-06-25T09:01:44.576Z,2.23
2018-06-25T09:04:13.620Z,2.00
2018-06-25T09:06:42.680Z,2.70
2018-06-25T09:09:13.088Z,3.00
2018-06-25T09:11:42.445Z,2.70
2018-06-25T09:14:11.493Z,2.77
2018-06-25T09:16:40.618Z,2.00
2018-06-25T09:19:09.735Z,2.47
2018-06-25T09:21:38.867Z,2.70
2018-06-25T09:24:07.919Z,2.27
2018-06-25T09:26:39.644Z,2.70
2018-06-25T09:29:09.339Z,2.90
2018-06-25T09:31:38.400Z,2.40
2018-06-25T09:34:11.673Z,2.80
2018-06-25T09:36:41.260Z,2.60
2018-06-25T09:39:12.080Z,2.50
2018-06-25T09:41:41.253Z,2.83
2018-06-25T09:44:10.985Z,2.60
2018-06-25T09:46:40.307Z,3.50
2018-06-25T09:49:09.352Z,3.40
2018-06-25T09:51:38.444Z,3.40
2018-06-25T09:54:07.519Z,2.80
2018-06-25T09:56:36.582Z,3.67
2018-06-25T09:59:05.752Z,2.73
2018-06-25T10:01:34.815Z,3.80
2018-06-25T10:04:03.865Z,3.60
2018-06-25T10:06:32.931Z,3.90
2018-06-25T10:09:01.783Z,4.00
2018-06-25T10:11:30.752Z,3.87
2018-06-25T10:13:59.875Z,3.43
2018-06-25T10:16:28.976Z,3.60
2018-06-25T10:18:58.092Z,4.10
2018-06-25T10:21:27.209Z,3.43
2018-06-25T10:23:56.292Z,3.83
2018-06-25T10:26:25.324Z,4.03
2018-06-25T10:28:54.380Z,3.83
2018-06-25T10:31:23.415Z,3.67
2018-06-25T10:33:52.467Z,4.00
2018-06-25T10:36:21.500Z,3.53
2018-06-25T10:38:50.560Z,3.47
2018-06-25T10:41:19.588Z,3.20
2018-06-25T10:43:48.644Z,3.57
2018-06-25T10:46:17.680Z,3.37
2018-06-25T10:48:46.728Z,2.83
2018-06-25T10:51:15.768Z,2.73
2018-06-25T10:53:44.823Z,2.53
2018-06-25T10:56:13.860Z,2.70
2018-06-25T10:58:42.921Z,2.50
2018-06-25T11:01:12.036Z,3.40
2018-06-25T11:03:41.183Z,3.10
2018-06-25T11:06:10.676Z,3.50
2018-06-25T11:08:40.704Z,3.40
2018-06-25T11:11:09.984Z,3.53
2018-06-25T11:13:39.048Z,3.77
2018-06-25T11:16:08.086Z,3.93
2018-06-25T11:18:37.143Z,3.47
2018-06-25T11:25:53.813Z,3.70
2018-06-25T11:28:23.633Z,3.90
2018-06-25T11:30:52.672Z,3.70
2018-06-25T11:33:22.144Z,3.57
2018-06-25T11:35:51.187Z,3.70
2018-06-25T11:38:20.248Z,3.70
2018-06-25T11:40:49.274Z,4.13
2018-06-25T11:43:18.319Z,3.63
2018-06-25T11:45:47.356Z,3.60
2018-06-25T11:48:16.412Z,4.20
2018-06-25T11:50:45.444Z,3.50
2018-06-25T11:53:14.492Z,4.47
2018-06-25T11:55:43.523Z,4.20
2018-06-25T11:58:12.581Z,4.60
2018-06-25T12:00:41.616Z,4.57
2018-06-25T12:03:10.727Z,4.60
2018-06-25T12:05:39.739Z,3.70
2018-06-25T12:08:08.558Z,4.17
2018-06-25T12:10:37.518Z,4.07
2018-06-25T12:13:06.576Z,4.53
2018-06-25T12:15:35.628Z,4.03
2018-06-25T12:18:04.716Z,3.77
2018-06-25T12:20:33.763Z,3.67
2018-06-25T12:23:02.852Z,4.00
2018-06-25T12:25:31.900Z,3.73
2018-06-25T12:28:00.966Z,4.20
2018-06-25T12:30:30.012Z,4.20
2018-06-25T12:32:59.080Z,4.10
2018-06-25T12:35:27.919Z,4.60
2018-06-25T12:37:56.896Z,4.27
2018-06-25T12:40:25.920Z,4.20
2018-06-25T12:42:54.990Z,3.93
2018-06-25T12:45:24.036Z,3.90
2018-06-25T12:47:53.100Z,4.17
2018-06-25T12:50:22.148Z,4.13
2018-06-25T12:52:51.227Z,3.80
2018-06-25T12:55:20.276Z,4.10
2018-06-25T12:57:49.343Z,4.43
2018-06-25T13:00:18.416Z,4.40
2018-06-25T13:02:47.463Z,4.00
2018-06-25T13:05:16.668Z,3.87
2018-06-25T13:07:45.715Z,3.60
2018-06-25T13:10:14.523Z,3.93
2018-06-25T13:12:43.206Z,3.70
2018-06-25T13:15:11.936Z,3.77
2018-06-25T13:17:40.849Z,3.77
2018-06-25T13:20:09.900Z,4.07
2018-06-25T13:22:38.939Z,4.30
2018-06-25T13:25:08.019Z,3.87
2018-06-25T13:27:37.135Z,4.10
2018-06-25T13:30:06.212Z,4.13
2018-06-25T13:32:35.311Z,4.10
2018-06-25T13:35:04.489Z,3.83
2018-06-25T13:37:33.524Z,3.90
2018-06-25T13:40:02.620Z,3.80
2018-06-25T13:42:31.660Z,4.20
2018-06-25T13:45:00.711Z,4.00
2018-06-25T13:47:29.747Z,4.30
2018-06-25T13:49:58.836Z,4.20
2018-06-25T13:52:27.879Z,4.00
2018-06-25T13:54:56.939Z,3.93
2018-06-25T13:57:25.988Z,3.80
2018-06-25T13:59:55.056Z,4.10
2018-06-25T14:02:24.136Z,3.70
2018-06-25T14:04:53.203Z,3.47
2018-06-25T14:07:22.254Z,3.73
2018-06-25T14:09:51.369Z,3.93
2018-06-25T14:12:20.404Z,3.83
2018-06-25T14:14:49.456Z,3.90
2018-06-25T14:17:18.491Z,3.90
2018-06-25T14:19:47.543Z,3.63
2018-06-25T14:22:16.641Z,3.73
2018-06-25T14:24:50.628Z,3.50
2018-06-25T14:27:19.760Z,3.80
2018-06-25T14:29:48.816Z,3.80
2018-06-25T14:32:23.363Z,3.60
2018-06-25T14:34:57.871Z,3.83
2018-06-25T14:37:26.909Z,3.60
2018-06-25T14:39:55.717Z,3.10
2018-06-25T14:42:24.624Z,3.12
2018-06-25T14:44:53.681Z,3.45
2018-06-25T14:47:22.715Z,3.10
2018-06-25T14:49:51.771Z,3.00
2018-06-25T14:52:20.817Z,3.30
2018-06-25T14:54:49.893Z,2.90
2018-06-25T14:57:19.020Z,2.80
2018-06-25T14:59:48.084Z,3.63
2018-06-25T15:02:17.124Z,2.90
2018-06-25T15:04:46.180Z,3.20
2018-06-25T15:07:15.215Z,3.27
2018-06-25T15:09:44.277Z,3.23
2018-06-25T15:12:13.408Z,3.40
2018-06-25T15:14:42.492Z,3.20
2018-06-25T15:17:11.520Z,3.23
2018-06-25T15:19:40.581Z,3.37
2018-06-25T15:22:09.611Z,3.40
2018-06-25T15:24:38.664Z,3.97
2018-06-25T15:27:07.691Z,4.03
2018-06-25T15:29:36.743Z,3.80
2018-06-25T15:32:05.792Z,3.80
2018-06-25T15:34:34.876Z,4.03
2018-06-25T15:37:03.922Z,4.20
2018-06-25T15:39:32.976Z,4.07
2018-06-25T15:42:02.020Z,3.83
2018-06-25T15:44:31.076Z,3.80
2018-06-25T15:47:00.108Z,4.30
2018-06-25T15:49:29.163Z,4.30
2018-06-25T15:51:58.199Z,4.00
2018-06-25T15:54:27.255Z,3.77
2018-06-25T15:56:56.293Z,3.50
2018-06-25T15:59:25.440Z,3.57
2018-06-25T16:01:54.487Z,3.20
2018-06-25T16:04:23.544Z,3.17
2018-06-25T16:06:52.641Z,2.80
2018-06-25T16:09:21.660Z,2.70
2018-06-25T16:11:50.719Z,3.07
2018-06-25T16:14:19.793Z,2.70
2018-06-25T16:16:48.924Z,2.63
2018-06-25T16:19:17.968Z,3.00
2018-06-25T16:21:47.033Z,2.47
2018-06-25T16:24:15.819Z,2.70
2018-06-25T16:26:44.755Z,2.70
2018-06-25T16:29:13.809Z,2.77
2018-06-25T16:31:42.647Z,3.00
2018-06-25T16:34:11.606Z,2.90
2018-06-25T16:36:40.827Z,3.00
2018-06-25T16:39:11.408Z,2.97
2018-06-25T16:41:40.620Z,2.93
2018-06-25T16:44:09.916Z,2.83
2018-06-25T16:46:39.272Z,3.70
2018-06-25T16:49:08.307Z,3.60
2018-06-25T16:51:37.368Z,3.98
2018-06-25T16:54:06.420Z,4.10
2018-06-25T16:56:35.484Z,4.80
2018-06-25T16:59:04.628Z,5.53
2018-06-25T17:01:34.352Z,5.90
2018-06-25T17:04:03.396Z,5.57
2018-06-25T17:06:32.459Z,5.50
2018-06-25T17:09:01.526Z,5.83
2018-06-25T17:11:30.612Z,5.62
2018-06-25T17:13:59.659Z,5.60
2018-06-25T17:16:28.750Z,6.25
2018-06-25T17:18:57.803Z,5.70
2018-06-25T17:21:26.863Z,5.25
2018-06-25T17:23:55.910Z,5.95
2018-06-25T17:26:25.123Z,6.53
2018-06-25T17:28:54.225Z,6.62
2018-06-25T17:31:23.260Z,6.40
2018-06-25T17:33:52.059Z,6.90
2018-06-25T17:36:21.052Z,7.05
2018-06-25T17:38:49.843Z,7.10
2018-06-25T17:41:18.823Z,6.90
2018-06-25T17:43:47.896Z,7.50
2018-06-25T17:46:16.968Z,7.07
2018-06-25T17:48:46.018Z,6.90
2018-06-25T17:51:14.834Z,6.40
2018-06-25T17:53:43.756Z,6.53
2018-06-25T17:56:12.820Z,5.30
2018-06-25T17:58:41.880Z,5.27
2018-06-25T18:01:10.944Z,5.80
2018-06-25T18:03:39.997Z,5.20
2018-06-25T18:06:09.065Z,5.17
2018-06-25T18:08:38.103Z,5.17
2018-06-25T18:11:07.167Z,5.03
2018-06-25T18:13:36.232Z,4.83
2018-06-25T18:16:05.596Z,5.10
2018-06-25T18:18:34.645Z,11.03
2018-06-25T18:21:03.729Z,9.20
2018-06-25T18:23:32.788Z,6.80
2018-06-25T18:26:01.892Z,9.30
2018-06-25T18:28:30.936Z,6.53
2018-06-25T18:30:59.999Z,9.23
2018-06-25T18:33:29.056Z,6.00
2018-06-25T18:35:58.140Z,4.87
2018-06-25T18:38:26.943Z,9.63
2018-06-25T18:40:55.676Z,4.23
2018-06-25T18:43:24.599Z,8.30
2018-06-25T18:45:53.661Z,5.73
2018-06-25T18:48:22.974Z,6.90
2018-06-25T18:50:52.027Z,5.20
2018-06-25T18:53:21.071Z,6.57
2018-06-25T18:55:50.153Z,8.20
2018-06-25T18:58:19.194Z,4.63
2018-06-25T19:00:48.255Z,5.70
2018-06-25T19:03:17.364Z,9.57
2018-06-25T19:05:46.520Z,13.63
2018-06-25T19:08:15.515Z,11.37
2018-06-25T19:10:44.607Z,9.47
2018-06-25T19:13:13.667Z,6.90
2018-06-25T19:15:42.455Z,7.57
2018-06-25T19:18:11.431Z,7.70
2018-06-25T19:20:40.469Z,5.43
2018-06-25T19:23:09.539Z,7.83
2018-06-25T19:25:38.359Z,7.50
2018-06-25T19:28:07.044Z,6.50
2018-06-25T19:30:35.747Z,7.10
2018-06-25T19:33:04.685Z,7.13
2018-06-25T19:35:33.531Z,5.37
2018-06-25T19:38:02.464Z,7.10
2018-06-25T19:40:31.556Z,8.67
2018-06-25T19:43:00.600Z,11.40
2018-06-25T19:45:29.647Z,8.77
2018-06-25T19:47:58.706Z,5.80
2018-06-25T19:50:27.746Z,5.97
2018-06-25T19:52:56.803Z,7.67
2018-06-25T19:55:25.844Z,9.13
2018-06-25T19:57:54.704Z,6.83
2018-06-25T20:00:23.613Z,6.27
2018-06-25T20:02:52.676Z,6.50
2018-06-25T20:05:21.712Z,7.37
2018-06-25T20:07:50.767Z,8.60
2018-06-25T20:10:19.833Z,8.50
2018-06-25T20:12:48.903Z,7.47
2018-06-25T20:15:17.766Z,7.60
2018-06-25T20:17:46.807Z,10.47
2018-06-25T20:20:15.852Z,8.03
2018-06-25T20:22:44.920Z,8.77
2018-06-25T20:25:13.971Z,11.67
2018-06-25T20:27:42.792Z,10.40
2018-06-25T20:30:11.503Z,9.67
2018-06-25T20:32:40.435Z,8.00
2018-06-25T20:35:09.788Z,9.07
2018-06-25T20:37:38.847Z,10.60
2018-06-25T20:40:07.643Z,10.57
2018-06-25T20:42:36.583Z,11.80
2018-06-25T20:45:05.643Z,9.27
2018-06-25T20:47:35.012Z,10.17
2018-06-25T20:50:04.459Z,12.70
2018-06-25T20:52:33.519Z,10.53
2018-06-25T20:55:02.564Z,10.57
2018-06-25T20:57:31.629Z,12.03
2018-06-25T21:00:00.524Z,10.90
2018-06-25T21:02:29.496Z,11.23
2018-06-25T21:04:58.540Z,11.33
2018-06-25T21:07:27.603Z,11.27
2018-06-25T21:09:56.397Z,11.20
2018-06-25T21:12:25.372Z,11.37
2018-06-25T21:14:54.416Z,11.30
2018-06-25T21:17:23.546Z,10.93
2018-06-25T21:19:52.592Z,11.37
2018-06-25T21:22:21.651Z,11.27
2018-06-25T21:24:50.720Z,10.17
2018-06-25T21:27:19.799Z,11.07
2018-06-25T21:29:48.836Z,11.10
2018-06-25T21:32:17.900Z,11.60
2018-06-25T21:34:46.980Z,10.57
2018-06-25T21:37:16.040Z,10.70
2018-06-25T21:39:45.763Z,10.47
2018-06-25T21:42:14.705Z,11.20
2018-06-25T21:44:43.744Z,10.73
2018-06-25T21:47:13.152Z,10.67
2018-06-25T21:49:42.072Z,10.53
2018-06-25T21:52:11.140Z,11.10
2018-06-25T21:54:40.191Z,10.20
2018-06-25T21:57:09.261Z,9.90
2018-06-25T21:59:38.312Z,10.67
2018-06-25T22:02:07.148Z,10.63
2018-06-25T22:04:36.064Z,10.57
2018-06-25T22:07:05.120Z,10.67
2018-06-25T22:09:34.221Z,10.47
2018-06-25T22:12:03.284Z,10.37
2018-06-25T22:14:32.344Z,9.17
2018-06-25T22:17:01.388Z,9.63
2018-06-25T22:19:30.451Z,9.43
2018-06-25T22:21:59.500Z,10.00
2018-06-25T22:24:28.580Z,9.63
2018-06-25T22:26:57.628Z,10.00
2018-06-25T22:29:26.687Z,8.93
2018-06-25T22:31:55.732Z,9.57
2018-06-25T22:34:24.792Z,10.10
2018-06-25T22:36:53.832Z,9.17
2018-06-25T22:39:22.899Z,8.93
2018-06-25T22:41:51.944Z,9.57
2018-06-25T22:44:20.751Z,9.63
2018-06-25T22:46:49.423Z,9.67
2018-06-25T22:49:18.363Z,9.63
2018-06-25T22:51:47.405Z,9.13
2018-06-25T22:54:16.218Z,9.43
2018-06-25T22:56:44.923Z,8.83
2018-06-25T22:59:13.872Z,9.10
2018-06-25T23:01:42.913Z,9.07
2018-06-25T23:04:11.964Z,9.30
2018-06-25T23:06:40.761Z,8.70
2018-06-25T23:09:10.175Z,8.80
2018-06-25T23:11:38.890Z,9.53
2018-06-25T23:14:07.824Z,9.27
2018-06-25T23:16:36.907Z,9.00
2018-06-25T23:19:05.967Z,8.83
2018-06-25T23:21:35.008Z,9.13
2018-06-25T23:24:04.076Z,7.90
2018-06-25T23:26:33.120Z,8.87
2018-06-25T23:29:01.930Z,8.07
2018-06-25T23:31:30.639Z,8.77
2018-06-25T23:33:59.569Z,8.43
2018-06-25T23:36:28.616Z,8.87
2018-06-25T23:38:57.676Z,9.13
2018-06-25T23:41:26.468Z,8.63
2018-06-25T23:43:55.404Z,9.07
2018-06-25T23:46:24.453Z,8.77
2018-06-25T23:48:53.519Z,8.80
2018-06-25T23:51:22.619Z,8.57
2018-06-25T23:53:51.681Z,8.47
2018-06-25T23:56:20.720Z,8.73
2018-06-25T23:58:49.784Z,8.53
